sensor_id;sensor_type;location;lat;lon;timestamp;P1;durP1;ratioP1;P2;durP2;ratioP2
63346;SDS011;49472;49.880;8.650;2022-09-14T00:02:11;26.15;;;19.20;;
63346;SDS011;49472;49.880;8.650;2022-09-14T00:04:36;25.93;;;18.87;;
63346;SDS011;49472;49.880;8.650;2022-09-14T00:07:02;23.07;;;19.30;;
63346;SDS011;49472;49.880;8.650;2022-09-14T00:09:28;22.80;;;20.40;;
63346;SDS011;49472;49.880;8.650;2022-09-14T00:11:53;21.20;;;19.00;;
63346;SDS011;49472;49.880;8.650;2022-09-14T00:14:19;21.53;;;19.63;;
63346;SDS011;49472;49.880;8.650;2022-09-14T00:16:44;19.57;;;17.87;;
63346;SDS011;49472;49.880;8.650;2022-09-14T00:19:19;20.03;;;18.23;;
63346;SDS011;49472;49.880;8.650;2022-09-14T00:21:44;19.10;;;17.40;;
63346;SDS011;49472;49.880;8.650;2022-09-14T00:24:10;20.63;;;18.80;;
63346;SDS011;49472;49.880;8.650;2022-09-14T00:26:35;20.43;;;18.60;;
63346;SDS011;49472;49.880;8.650;2022-09-14T00:29:01;23.50;;;18.43;;
63346;SDS011;49472;49.880;8.650;2022-09-14T00:31:28;18.43;;;16.87;;
63346;SDS011;49472;49.880;8.650;2022-09-14T00:33:54;19.60;;;17.70;;
63346;SDS011;49472;49.880;8.650;2022-09-14T00:36:20;19.97;;;18.07;;
63346;SDS011;49472;49.880;8.650;2022-09-14T00:38:46;21.23;;;19.13;;
63346;SDS011;49472;49.880;8.650;2022-09-14T00:41:19;22.20;;;18.10;;
63346;SDS011;49472;49.880;8.650;2022-09-14T00:46:23;20.17;;;18.17;;
63346;SDS011;49472;49.880;8.650;2022-09-14T00:48:48;24.37;;;20.10;;
63346;SDS011;49472;49.880;8.650;2022-09-14T00:51:15;21.57;;;19.67;;
63346;SDS011;49472;49.880;8.650;2022-09-14T00:53:41;21.40;;;19.23;;
63346;SDS011;49472;49.880;8.650;2022-09-14T00:56:07;20.27;;;18.33;;
63346;SDS011;49472;49.880;8.650;2022-09-14T00:58:32;22.47;;;18.70;;
63346;SDS011;49472;49.880;8.650;2022-09-14T01:00:57;23.20;;;18.77;;
63346;SDS011;49472;49.880;8.650;2022-09-14T01:03:22;20.50;;;18.50;;
63346;SDS011;49472;49.880;8.650;2022-09-14T01:13:24;22.07;;;20.00;;
63346;SDS011;49472;49.880;8.650;2022-09-14T01:18:39;20.00;;;17.77;;
63346;SDS011;49472;49.880;8.650;2022-09-14T01:26:14;20.05;;;18.05;;
63346;SDS011;49472;49.880;8.650;2022-09-14T01:28:50;20.10;;;18.40;;
63346;SDS011;49472;49.880;8.650;2022-09-14T01:31:19;23.70;;;18.57;;
63346;SDS011;49472;49.880;8.650;2022-09-14T01:33:50;24.03;;;19.20;;
63346;SDS011;49472;49.880;8.650;2022-09-14T01:36:17;24.87;;;19.90;;
63346;SDS011;49472;49.880;8.650;2022-09-14T01:38:44;19.80;;;17.93;;
63346;SDS011;49472;49.880;8.650;2022-09-14T01:41:10;20.30;;;17.70;;
63346;SDS011;49472;49.880;8.650;2022-09-14T01:43:41;21.43;;;17.80;;
63346;SDS011;49472;49.880;8.650;2022-09-14T01:46:17;24.90;;;19.20;;
63346;SDS011;49472;49.880;8.650;2022-09-14T01:51:15;22.67;;;18.63;;
63346;SDS011;49472;49.880;8.650;2022-09-14T01:53:45;21.17;;;19.03;;
63346;SDS011;49472;49.880;8.650;2022-09-14T02:01:42;21.13;;;18.83;;
63346;SDS011;49472;49.880;8.650;2022-09-14T02:04:09;34.33;;;16.10;;
63346;SDS011;49472;49.880;8.650;2022-09-14T02:09:01;22.57;;;17.87;;
63346;SDS011;49472;49.880;8.650;2022-09-14T02:11:26;20.70;;;18.70;;
63346;SDS011;49472;49.880;8.650;2022-09-14T02:13:52;26.07;;;18.10;;
63346;SDS011;49472;49.880;8.650;2022-09-14T02:16:17;19.67;;;17.70;;
63346;SDS011;49472;49.880;8.650;2022-09-14T02:18:43;25.50;;;19.27;;
63346;SDS011;49472;49.880;8.650;2022-09-14T02:21:13;20.67;;;18.40;;
63346;SDS011;49472;49.880;8.650;2022-09-14T02:23:39;21.90;;;17.63;;
63346;SDS011;49472;49.880;8.650;2022-09-14T02:26:05;19.73;;;17.83;;
63346;SDS011;49472;49.880;8.650;2022-09-14T02:28:30;19.80;;;17.80;;
63346;SDS011;49472;49.880;8.650;2022-09-14T02:31:26;27.20;;;18.80;;
63346;SDS011;49472;49.880;8.650;2022-09-14T02:36:27;13.30;;;12.00;;
63346;SDS011;49472;49.880;8.650;2022-09-14T02:41:49;18.87;;;16.60;;
63346;SDS011;49472;49.880;8.650;2022-09-14T02:49:11;22.07;;;15.90;;
63346;SDS011;49472;49.880;8.650;2022-09-14T02:51:40;18.60;;;16.77;;
63346;SDS011;49472;49.880;8.650;2022-09-14T02:54:15;22.13;;;16.57;;
63346;SDS011;49472;49.880;8.650;2022-09-14T02:56:41;22.20;;;18.60;;
63346;SDS011;49472;49.880;8.650;2022-09-14T02:59:06;19.53;;;17.53;;
63346;SDS011;49472;49.880;8.650;2022-09-14T03:01:32;25.33;;;17.93;;
63346;SDS011;49472;49.880;8.650;2022-09-14T03:03:57;25.57;;;18.80;;
63346;SDS011;49472;49.880;8.650;2022-09-14T03:06:22;22.13;;;18.27;;
63346;SDS011;49472;49.880;8.650;2022-09-14T03:08:48;21.10;;;19.07;;
63346;SDS011;49472;49.880;8.650;2022-09-14T03:11:13;20.17;;;18.03;;
63346;SDS011;49472;49.880;8.650;2022-09-14T03:13:38;23.73;;;19.27;;
63346;SDS011;49472;49.880;8.650;2022-09-14T03:16:11;25.63;;;16.87;;
63346;SDS011;49472;49.880;8.650;2022-09-14T03:18:36;20.87;;;18.87;;
63346;SDS011;49472;49.880;8.650;2022-09-14T03:21:06;24.00;;;17.47;;
63346;SDS011;49472;49.880;8.650;2022-09-14T03:23:38;19.30;;;17.40;;
63346;SDS011;49472;49.880;8.650;2022-09-14T03:26:10;17.83;;;16.17;;
63346;SDS011;49472;49.880;8.650;2022-09-14T03:28:36;18.20;;;16.60;;
63346;SDS011;49472;49.880;8.650;2022-09-14T03:31:02;19.33;;;17.20;;
63346;SDS011;49472;49.880;8.650;2022-09-14T03:33:27;19.20;;;17.30;;
63346;SDS011;49472;49.880;8.650;2022-09-14T03:35:53;18.93;;;16.93;;
63346;SDS011;49472;49.880;8.650;2022-09-14T03:38:18;22.43;;;16.53;;
63346;SDS011;49472;49.880;8.650;2022-09-14T03:40:43;14.60;;;13.20;;
63346;SDS011;49472;49.880;8.650;2022-09-14T03:43:09;18.33;;;13.20;;
63346;SDS011;49472;49.880;8.650;2022-09-14T03:45:36;14.37;;;12.20;;
63346;SDS011;49472;49.880;8.650;2022-09-14T03:48:02;23.07;;;15.30;;
63346;SDS011;49472;49.880;8.650;2022-09-14T03:50:27;22.63;;;12.40;;
63346;SDS011;49472;49.880;8.650;2022-09-14T03:52:52;18.00;;;12.67;;
63346;SDS011;49472;49.880;8.650;2022-09-14T03:55:17;14.87;;;11.90;;
63346;SDS011;49472;49.880;8.650;2022-09-14T03:57:44;14.60;;;11.23;;
63346;SDS011;49472;49.880;8.650;2022-09-14T04:00:09;17.37;;;12.87;;
63346;SDS011;49472;49.880;8.650;2022-09-14T04:02:35;16.03;;;11.93;;
63346;SDS011;49472;49.880;8.650;2022-09-14T04:05:00;14.33;;;11.73;;
63346;SDS011;49472;49.880;8.650;2022-09-14T04:07:25;20.70;;;11.70;;
63346;SDS011;49472;49.880;8.650;2022-09-14T04:09:50;13.20;;;11.80;;
63346;SDS011;49472;49.880;8.650;2022-09-14T04:12:16;18.60;;;11.73;;
63346;SDS011;49472;49.880;8.650;2022-09-14T04:14:41;17.70;;;13.17;;
63346;SDS011;49472;49.880;8.650;2022-09-14T04:17:06;24.57;;;13.60;;
63346;SDS011;49472;49.880;8.650;2022-09-14T04:19:31;20.50;;;13.40;;
63346;SDS011;49472;49.880;8.650;2022-09-14T04:22:01;12.93;;;11.63;;
63346;SDS011;49472;49.880;8.650;2022-09-14T04:24:27;23.03;;;13.30;;
63346;SDS011;49472;49.880;8.650;2022-09-14T04:26:52;16.50;;;12.23;;
63346;SDS011;49472;49.880;8.650;2022-09-14T04:29:17;18.10;;;13.43;;
63346;SDS011;49472;49.880;8.650;2022-09-14T04:31:42;18.67;;;12.80;;
63346;SDS011;49472;49.880;8.650;2022-09-14T04:34:09;19.10;;;12.47;;
63346;SDS011;49472;49.880;8.650;2022-09-14T04:36:35;20.50;;;14.67;;
63346;SDS011;49472;49.880;8.650;2022-09-14T04:39:01;17.90;;;11.60;;
63346;SDS011;49472;49.880;8.650;2022-09-14T04:41:27;30.47;;;13.23;;
63346;SDS011;49472;49.880;8.650;2022-09-14T04:43:52;21.20;;;13.33;;
63346;SDS011;49472;49.880;8.650;2022-09-14T04:46:22;16.50;;;11.70;;
63346;SDS011;49472;49.880;8.650;2022-09-14T04:48:47;17.80;;;12.23;;
63346;SDS011;49472;49.880;8.650;2022-09-14T04:51:14;19.00;;;11.93;;
63346;SDS011;49472;49.880;8.650;2022-09-14T04:53:43;14.90;;;10.83;;
63346;SDS011;49472;49.880;8.650;2022-09-14T04:56:09;13.37;;;11.53;;
63346;SDS011;49472;49.880;8.650;2022-09-14T04:58:35;15.60;;;11.93;;
63346;SDS011;49472;49.880;8.650;2022-09-14T05:01:07;14.97;;;11.60;;
63346;SDS011;49472;49.880;8.650;2022-09-14T05:03:32;13.33;;;9.47;;
63346;SDS011;49472;49.880;8.650;2022-09-14T05:06:01;10.67;;;9.57;;
63346;SDS011;49472;49.880;8.650;2022-09-14T05:08:26;17.13;;;10.00;;
63346;SDS011;49472;49.880;8.650;2022-09-14T05:10:55;16.80;;;8.90;;
63346;SDS011;49472;49.880;8.650;2022-09-14T05:13:21;11.10;;;9.10;;
63346;SDS011;49472;49.880;8.650;2022-09-14T05:15:46;12.07;;;7.97;;
63346;SDS011;49472;49.880;8.650;2022-09-14T05:18:11;8.57;;;7.37;;
63346;SDS011;49472;49.880;8.650;2022-09-14T05:20:36;10.00;;;7.40;;
63346;SDS011;49472;49.880;8.650;2022-09-14T05:23:02;10.43;;;7.67;;
63346;SDS011;49472;49.880;8.650;2022-09-14T05:25:27;9.30;;;6.53;;
63346;SDS011;49472;49.880;8.650;2022-09-14T05:27:52;11.60;;;6.73;;
63346;SDS011;49472;49.880;8.650;2022-09-14T05:30:17;8.07;;;6.33;;
63346;SDS011;49472;49.880;8.650;2022-09-14T05:32:42;7.37;;;6.67;;
63346;SDS011;49472;49.880;8.650;2022-09-14T05:35:08;5.77;;;5.27;;
63346;SDS011;49472;49.880;8.650;2022-09-14T05:37:33;9.20;;;6.43;;
63346;SDS011;49472;49.880;8.650;2022-09-14T05:39:58;6.20;;;5.70;;
63346;SDS011;49472;49.880;8.650;2022-09-14T05:42:23;11.20;;;5.90;;
63346;SDS011;49472;49.880;8.650;2022-09-14T05:44:49;6.40;;;5.90;;
63346;SDS011;49472;49.880;8.650;2022-09-14T05:47:14;10.40;;;6.40;;
63346;SDS011;49472;49.880;8.650;2022-09-14T05:49:39;7.30;;;6.60;;
63346;SDS011;49472;49.880;8.650;2022-09-14T05:52:04;8.27;;;7.60;;
63346;SDS011;49472;49.880;8.650;2022-09-14T05:54:30;9.17;;;8.00;;
63346;SDS011;49472;49.880;8.650;2022-09-14T05:56:55;9.63;;;8.63;;
63346;SDS011;49472;49.880;8.650;2022-09-14T05:59:20;10.37;;;9.00;;
63346;SDS011;49472;49.880;8.650;2022-09-14T06:01:45;9.63;;;8.83;;
63346;SDS011;49472;49.880;8.650;2022-09-14T06:04:11;11.57;;;10.37;;
63346;SDS011;49472;49.880;8.650;2022-09-14T06:06:36;10.77;;;9.80;;
63346;SDS011;49472;49.880;8.650;2022-09-14T06:09:02;10.50;;;9.50;;
63346;SDS011;49472;49.880;8.650;2022-09-14T06:11:28;10.80;;;9.90;;
63346;SDS011;49472;49.880;8.650;2022-09-14T06:13:54;13.83;;;11.20;;
63346;SDS011;49472;49.880;8.650;2022-09-14T06:16:20;12.77;;;11.77;;
63346;SDS011;49472;49.880;8.650;2022-09-14T06:18:47;12.80;;;11.80;;
63346;SDS011;49472;49.880;8.650;2022-09-14T06:21:14;13.27;;;12.20;;
63346;SDS011;49472;49.880;8.650;2022-09-14T06:23:40;12.93;;;10.97;;
63346;SDS011;49472;49.880;8.650;2022-09-14T06:26:05;12.70;;;11.80;;
63346;SDS011;49472;49.880;8.650;2022-09-14T06:28:31;12.47;;;11.47;;
63346;SDS011;49472;49.880;8.650;2022-09-14T06:31:00;11.93;;;10.93;;
63346;SDS011;49472;49.880;8.650;2022-09-14T06:33:27;13.63;;;12.40;;
63346;SDS011;49472;49.880;8.650;2022-09-14T06:35:53;14.60;;;13.43;;
63346;SDS011;49472;49.880;8.650;2022-09-14T06:38:18;14.00;;;12.70;;
63346;SDS011;49472;49.880;8.650;2022-09-14T06:40:56;16.00;;;14.83;;
63346;SDS011;49472;49.880;8.650;2022-09-14T06:43:22;16.07;;;14.77;;
63346;SDS011;49472;49.880;8.650;2022-09-14T06:45:58;16.13;;;14.83;;
63346;SDS011;49472;49.880;8.650;2022-09-14T06:48:23;17.00;;;15.60;;
63346;SDS011;49472;49.880;8.650;2022-09-14T06:50:48;16.70;;;15.37;;
63346;SDS011;49472;49.880;8.650;2022-09-14T06:53:14;17.17;;;15.60;;
63346;SDS011;49472;49.880;8.650;2022-09-14T06:55:39;17.60;;;15.47;;
63346;SDS011;49472;49.880;8.650;2022-09-14T06:58:04;15.70;;;14.53;;
63346;SDS011;49472;49.880;8.650;2022-09-14T07:00:31;17.00;;;15.80;;
63346;SDS011;49472;49.880;8.650;2022-09-14T07:02:56;17.07;;;15.67;;
63346;SDS011;49472;49.880;8.650;2022-09-14T07:05:22;16.57;;;15.37;;
63346;SDS011;49472;49.880;8.650;2022-09-14T07:07:49;17.33;;;15.93;;
63346;SDS011;49472;49.880;8.650;2022-09-14T07:10:15;17.00;;;15.70;;
63346;SDS011;49472;49.880;8.650;2022-09-14T07:12:40;17.33;;;15.93;;
63346;SDS011;49472;49.880;8.650;2022-09-14T07:15:05;18.83;;;16.20;;
63346;SDS011;49472;49.880;8.650;2022-09-14T07:17:31;17.60;;;16.00;;
63346;SDS011;49472;49.880;8.650;2022-09-14T07:19:56;16.47;;;14.80;;
63346;SDS011;49472;49.880;8.650;2022-09-14T07:22:21;16.23;;;15.00;;
63346;SDS011;49472;49.880;8.650;2022-09-14T07:24:46;17.17;;;15.83;;
63346;SDS011;49472;49.880;8.650;2022-09-14T07:27:12;16.60;;;15.30;;
63346;SDS011;49472;49.880;8.650;2022-09-14T07:29:37;16.80;;;15.47;;
63346;SDS011;49472;49.880;8.650;2022-09-14T07:32:02;17.30;;;16.10;;
63346;SDS011;49472;49.880;8.650;2022-09-14T07:34:27;17.27;;;15.50;;
63346;SDS011;49472;49.880;8.650;2022-09-14T07:36:53;17.47;;;16.17;;
63346;SDS011;49472;49.880;8.650;2022-09-14T07:39:18;17.00;;;15.80;;
63346;SDS011;49472;49.880;8.650;2022-09-14T07:41:43;15.57;;;14.37;;
63346;SDS011;49472;49.880;8.650;2022-09-14T07:44:09;16.10;;;15.00;;
63346;SDS011;49472;49.880;8.650;2022-09-14T07:46:38;15.33;;;14.00;;
63346;SDS011;49472;49.880;8.650;2022-09-14T07:49:04;16.47;;;15.20;;
63346;SDS011;49472;49.880;8.650;2022-09-14T07:51:29;17.17;;;15.43;;
63346;SDS011;49472;49.880;8.650;2022-09-14T07:53:55;15.50;;;14.30;;
63346;SDS011;49472;49.880;8.650;2022-09-14T07:56:20;18.63;;;14.80;;
63346;SDS011;49472;49.880;8.650;2022-09-14T07:58:46;15.80;;;14.60;;
63346;SDS011;49472;49.880;8.650;2022-09-14T08:01:12;15.10;;;13.57;;
63346;SDS011;49472;49.880;8.650;2022-09-14T08:03:39;15.57;;;14.27;;
63346;SDS011;49472;49.880;8.650;2022-09-14T08:06:05;14.93;;;13.50;;
63346;SDS011;49472;49.880;8.650;2022-09-14T08:08:32;16.43;;;14.90;;
63346;SDS011;49472;49.880;8.650;2022-09-14T08:11:11;14.70;;;13.50;;
63346;SDS011;49472;49.880;8.650;2022-09-14T08:13:37;14.93;;;13.77;;
63346;SDS011;49472;49.880;8.650;2022-09-14T08:16:03;16.70;;;14.00;;
63346;SDS011;49472;49.880;8.650;2022-09-14T08:18:30;16.10;;;14.60;;
63346;SDS011;49472;49.880;8.650;2022-09-14T08:20:55;16.03;;;14.70;;
63346;SDS011;49472;49.880;8.650;2022-09-14T08:23:21;15.63;;;14.40;;
63346;SDS011;49472;49.880;8.650;2022-09-14T08:25:46;16.53;;;14.93;;
63346;SDS011;49472;49.880;8.650;2022-09-14T08:28:11;15.53;;;14.50;;
63346;SDS011;49472;49.880;8.650;2022-09-14T08:30:36;18.43;;;16.70;;
63346;SDS011;49472;49.880;8.650;2022-09-14T08:33:01;18.50;;;16.80;;
63346;SDS011;49472;49.880;8.650;2022-09-14T08:35:27;19.00;;;17.03;;
63346;SDS011;49472;49.880;8.650;2022-09-14T08:37:52;19.57;;;17.77;;
63346;SDS011;49472;49.880;8.650;2022-09-14T08:40:17;18.50;;;17.02;;
63346;SDS011;49472;49.880;8.650;2022-09-14T08:42:43;20.40;;;18.40;;
63346;SDS011;49472;49.880;8.650;2022-09-14T08:45:09;20.77;;;19.00;;
63346;SDS011;49472;49.880;8.650;2022-09-14T08:47:43;21.70;;;19.67;;
63346;SDS011;49472;49.880;8.650;2022-09-14T08:52:38;22.73;;;20.53;;
63346;SDS011;49472;49.880;8.650;2022-09-14T09:10:36;26.50;;;23.90;;
63346;SDS011;49472;49.880;8.650;2022-09-14T09:13:03;28.00;;;25.37;;
63346;SDS011;49472;49.880;8.650;2022-09-14T09:15:32;27.10;;;24.20;;
63346;SDS011;49472;49.880;8.650;2022-09-14T09:20:47;26.77;;;24.47;;
63346;SDS011;49472;49.880;8.650;2022-09-14T09:23:17;27.83;;;24.97;;
63346;SDS011;49472;49.880;8.650;2022-09-14T09:25:54;28.67;;;25.90;;
63346;SDS011;49472;49.880;8.650;2022-09-14T09:28:21;27.37;;;24.87;;
63346;SDS011;49472;49.880;8.650;2022-09-14T09:30:47;29.10;;;24.27;;
63346;SDS011;49472;49.880;8.650;2022-09-14T09:33:16;26.77;;;24.37;;
63346;SDS011;49472;49.880;8.650;2022-09-14T09:35:43;27.17;;;24.83;;
63346;SDS011;49472;49.880;8.650;2022-09-14T09:38:16;25.70;;;23.47;;
63346;SDS011;49472;49.880;8.650;2022-09-14T09:40:47;26.93;;;24.47;;
63346;SDS011;49472;49.880;8.650;2022-09-14T09:43:14;26.33;;;23.90;;
63346;SDS011;49472;49.880;8.650;2022-09-14T09:48:30;27.40;;;24.53;;
63346;SDS011;49472;49.880;8.650;2022-09-14T09:51:01;27.80;;;25.00;;
63346;SDS011;49472;49.880;8.650;2022-09-14T09:53:28;28.43;;;25.50;;
63346;SDS011;49472;49.880;8.650;2022-09-14T09:55:53;27.97;;;25.37;;
63346;SDS011;49472;49.880;8.650;2022-09-14T09:58:20;28.13;;;25.30;;
63346;SDS011;49472;49.880;8.650;2022-09-14T10:00:58;26.63;;;24.07;;
63346;SDS011;49472;49.880;8.650;2022-09-14T10:03:25;27.40;;;24.23;;
63346;SDS011;49472;49.880;8.650;2022-09-14T10:05:58;27.20;;;24.40;;
63346;SDS011;49472;49.880;8.650;2022-09-14T10:08:24;26.23;;;23.53;;
63346;SDS011;49472;49.880;8.650;2022-09-14T10:10:50;27.40;;;23.70;;
63346;SDS011;49472;49.880;8.650;2022-09-14T10:15:46;25.10;;;22.60;;
63346;SDS011;49472;49.880;8.650;2022-09-14T10:18:16;24.33;;;21.93;;
63346;SDS011;49472;49.880;8.650;2022-09-14T10:25:42;25.80;;;23.20;;
63346;SDS011;49472;49.880;8.650;2022-09-14T10:28:17;26.60;;;23.40;;
63346;SDS011;49472;49.880;8.650;2022-09-14T10:30:45;27.63;;;23.20;;
63346;SDS011;49472;49.880;8.650;2022-09-14T10:33:14;24.93;;;21.47;;
63346;SDS011;49472;49.880;8.650;2022-09-14T10:38:09;24.57;;;22.17;;
63346;SDS011;49472;49.880;8.650;2022-09-14T10:40:40;25.90;;;23.30;;
63346;SDS011;49472;49.880;8.650;2022-09-14T10:45:33;28.60;;;24.53;;
63346;SDS011;49472;49.880;8.650;2022-09-14T10:48:03;29.07;;;25.93;;
63346;SDS011;49472;49.880;8.650;2022-09-14T10:55:52;26.83;;;24.23;;
63346;SDS011;49472;49.880;8.650;2022-09-14T11:01:11;28.40;;;25.50;;
63346;SDS011;49472;49.880;8.650;2022-09-14T11:03:49;25.80;;;23.17;;
63346;SDS011;49472;49.880;8.650;2022-09-14T11:08:47;27.67;;;25.17;;
63346;SDS011;49472;49.880;8.650;2022-09-14T11:11:21;29.47;;;26.30;;
63346;SDS011;49472;49.880;8.650;2022-09-14T11:16:22;28.57;;;25.83;;
63346;SDS011;49472;49.880;8.650;2022-09-14T11:18:56;28.40;;;24.97;;
63346;SDS011;49472;49.880;8.650;2022-09-14T11:21:36;30.20;;;26.20;;
63346;SDS011;49472;49.880;8.650;2022-09-14T11:24:08;32.25;;;25.90;;
63346;SDS011;49472;49.880;8.650;2022-09-14T11:26:36;27.30;;;24.60;;
63346;SDS011;49472;49.880;8.650;2022-09-14T11:31:48;26.63;;;24.07;;
63346;SDS011;49472;49.880;8.650;2022-09-14T11:34:21;27.48;;;24.52;;
63346;SDS011;49472;49.880;8.650;2022-09-14T11:36:49;28.20;;;24.83;;
63346;SDS011;49472;49.880;8.650;2022-09-14T11:39:23;34.10;;;23.75;;
63346;SDS011;49472;49.880;8.650;2022-09-14T11:42:00;30.40;;;24.33;;
63346;SDS011;49472;49.880;8.650;2022-09-14T11:44:29;29.23;;;25.17;;
63346;SDS011;49472;49.880;8.650;2022-09-14T11:50:33;27.08;;;23.73;;
63346;SDS011;49472;49.880;8.650;2022-09-14T11:52:28;26.13;;;23.52;;
63346;SDS011;49472;49.880;8.650;2022-09-14T11:54:54;30.83;;;25.02;;
63346;SDS011;49472;49.880;8.650;2022-09-14T11:57:22;28.45;;;25.00;;
63346;SDS011;49472;49.880;8.650;2022-09-14T12:12:50;25.13;;;22.52;;
63346;SDS011;49472;49.880;8.650;2022-09-14T12:17:51;25.23;;;22.65;;
63346;SDS011;49472;49.880;8.650;2022-09-14T12:22:51;25.92;;;22.40;;
63346;SDS011;49472;49.880;8.650;2022-09-14T12:25:28;25.73;;;23.10;;
63346;SDS011;49472;49.880;8.650;2022-09-14T12:27:53;25.73;;;22.77;;
63346;SDS011;49472;49.880;8.650;2022-09-14T12:33:02;26.20;;;23.58;;
63346;SDS011;49472;49.880;8.650;2022-09-14T12:37:56;27.38;;;23.90;;
63346;SDS011;49472;49.880;8.650;2022-09-14T12:40:22;32.85;;;25.90;;
63346;SDS011;49472;49.880;8.650;2022-09-14T12:42:48;28.30;;;24.60;;
63346;SDS011;49472;49.880;8.650;2022-09-14T12:48:52;29.50;;;25.02;;
63346;SDS011;49472;49.880;8.650;2022-09-14T12:51:00;29.70;;;24.80;;
63346;SDS011;49472;49.880;8.650;2022-09-14T12:53:27;25.20;;;22.50;;
63346;SDS011;49472;49.880;8.650;2022-09-14T12:55:59;27.63;;;24.63;;
63346;SDS011;49472;49.880;8.650;2022-09-14T13:01:08;27.20;;;23.85;;
63346;SDS011;49472;49.880;8.650;2022-09-14T13:03:47;31.02;;;23.13;;
63346;SDS011;49472;49.880;8.650;2022-09-14T13:06:14;28.08;;;23.70;;
63346;SDS011;49472;49.880;8.650;2022-09-14T13:08:42;27.50;;;24.67;;
63346;SDS011;49472;49.880;8.650;2022-09-14T13:11:08;36.00;;;25.42;;
63346;SDS011;49472;49.880;8.650;2022-09-14T13:13:33;35.30;;;24.35;;
63346;SDS011;49472;49.880;8.650;2022-09-14T13:16:00;31.83;;;23.77;;
63346;SDS011;49472;49.880;8.650;2022-09-14T13:18:31;33.40;;;18.20;;
63346;SDS011;49472;49.880;8.650;2022-09-14T13:20:58;94.80;;;24.25;;
63346;SDS011;49472;49.880;8.650;2022-09-14T13:23:28;37.30;;;21.88;;
63346;SDS011;49472;49.880;8.650;2022-09-14T13:25:53;34.30;;;21.50;;
63346;SDS011;49472;49.880;8.650;2022-09-14T13:28:19;37.95;;;23.90;;
63346;SDS011;49472;49.880;8.650;2022-09-14T13:30:58;41.25;;;25.63;;
63346;SDS011;49472;49.880;8.650;2022-09-14T13:33:23;35.58;;;23.38;;
63346;SDS011;49472;49.880;8.650;2022-09-14T13:35:49;38.60;;;24.77;;
63346;SDS011;49472;49.880;8.650;2022-09-14T13:38:20;41.33;;;24.07;;
63346;SDS011;49472;49.880;8.650;2022-09-14T13:40:46;36.58;;;24.85;;
63346;SDS011;49472;49.880;8.650;2022-09-14T13:43:14;37.05;;;24.63;;
63346;SDS011;49472;49.880;8.650;2022-09-14T13:45:40;34.60;;;22.65;;
63346;SDS011;49472;49.880;8.650;2022-09-14T13:48:05;30.27;;;22.65;;
63346;SDS011;49472;49.880;8.650;2022-09-14T13:50:31;35.65;;;23.10;;
63346;SDS011;49472;49.880;8.650;2022-09-14T13:52:57;30.13;;;23.75;;
63346;SDS011;49472;49.880;8.650;2022-09-14T13:58:09;31.77;;;22.92;;
63346;SDS011;49472;49.880;8.650;2022-09-14T14:00:53;34.42;;;24.02;;
63346;SDS011;49472;49.880;8.650;2022-09-14T14:03:27;37.25;;;23.73;;
63346;SDS011;49472;49.880;8.650;2022-09-14T14:05:52;28.63;;;22.92;;
63346;SDS011;49472;49.880;8.650;2022-09-14T14:10:52;41.80;;;30.10;;
63346;SDS011;49472;49.880;8.650;2022-09-14T14:13:28;34.40;;;28.90;;
63346;SDS011;49472;49.880;8.650;2022-09-14T14:15:59;35.85;;;29.13;;
63346;SDS011;49472;49.880;8.650;2022-09-14T14:18:39;35.38;;;31.23;;
63346;SDS011;49472;49.880;8.650;2022-09-14T14:23:36;40.50;;;33.17;;
63346;SDS011;49472;49.880;8.650;2022-09-14T14:26:06;39.55;;;32.75;;
63346;SDS011;49472;49.880;8.650;2022-09-14T14:28:32;33.53;;;29.80;;
63346;SDS011;49472;49.880;8.650;2022-09-14T14:30:58;35.40;;;31.52;;
63346;SDS011;49472;49.880;8.650;2022-09-14T14:33:23;45.45;;;33.35;;
63346;SDS011;49472;49.880;8.650;2022-09-14T14:35:50;40.40;;;31.23;;
63346;SDS011;49472;49.880;8.650;2022-09-14T14:38:19;40.58;;;34.25;;
63346;SDS011;49472;49.880;8.650;2022-09-14T14:40:44;41.08;;;32.92;;
63346;SDS011;49472;49.880;8.650;2022-09-14T14:43:13;40.25;;;33.25;;
63346;SDS011;49472;49.880;8.650;2022-09-14T14:45:41;37.53;;;31.08;;
63346;SDS011;49472;49.880;8.650;2022-09-14T14:48:08;40.95;;;32.92;;
63346;SDS011;49472;49.880;8.650;2022-09-14T14:50:33;38.88;;;32.63;;
63346;SDS011;49472;49.880;8.650;2022-09-14T14:53:00;42.67;;;31.25;;
63346;SDS011;49472;49.880;8.650;2022-09-14T14:55:26;43.05;;;33.53;;
63346;SDS011;49472;49.880;8.650;2022-09-14T14:57:53;38.40;;;31.77;;
63346;SDS011;49472;49.880;8.650;2022-09-14T15:00:22;44.28;;;37.33;;
63346;SDS011;49472;49.880;8.650;2022-09-14T15:02:48;40.08;;;33.10;;
63346;SDS011;49472;49.880;8.650;2022-09-14T15:05:13;36.80;;;32.90;;
63346;SDS011;49472;49.880;8.650;2022-09-14T15:07:39;36.95;;;31.35;;
63346;SDS011;49472;49.880;8.650;2022-09-14T15:10:05;32.53;;;29.05;;
63346;SDS011;49472;49.880;8.650;2022-09-14T15:12:30;35.95;;;32.22;;
63346;SDS011;49472;49.880;8.650;2022-09-14T15:14:56;35.10;;;29.48;;
63346;SDS011;49472;49.880;8.650;2022-09-14T15:17:21;25.92;;;23.50;;
63346;SDS011;49472;49.880;8.650;2022-09-14T15:19:46;20.92;;;19.08;;
63346;SDS011;49472;49.880;8.650;2022-09-14T15:22:12;17.63;;;16.05;;
63346;SDS011;49472;49.880;8.650;2022-09-14T15:24:38;15.60;;;14.10;;
63346;SDS011;49472;49.880;8.650;2022-09-14T15:27:03;14.57;;;13.63;;
63346;SDS011;49472;49.880;8.650;2022-09-14T15:29:29;15.43;;;13.95;;
63346;SDS011;49472;49.880;8.650;2022-09-14T15:31:54;14.18;;;12.80;;
63346;SDS011;49472;49.880;8.650;2022-09-14T15:34:19;14.18;;;12.82;;
63346;SDS011;49472;49.880;8.650;2022-09-14T15:36:46;14.35;;;13.13;;
63346;SDS011;49472;49.880;8.650;2022-09-14T15:39:14;13.38;;;12.48;;
63346;SDS011;49472;49.880;8.650;2022-09-14T15:41:39;14.57;;;12.95;;
63346;SDS011;49472;49.880;8.650;2022-09-14T15:44:05;13.48;;;12.52;;
63346;SDS011;49472;49.880;8.650;2022-09-14T15:46:31;16.25;;;14.60;;
63346;SDS011;49472;49.880;8.650;2022-09-14T15:48:56;13.18;;;12.18;;
63346;SDS011;49472;49.880;8.650;2022-09-14T15:51:21;13.05;;;12.25;;
63346;SDS011;49472;49.880;8.650;2022-09-14T15:53:47;13.40;;;12.50;;
63346;SDS011;49472;49.880;8.650;2022-09-14T15:56:12;13.27;;;12.37;;
63346;SDS011;49472;49.880;8.650;2022-09-14T15:58:38;14.37;;;12.83;;
63346;SDS011;49472;49.880;8.650;2022-09-14T16:01:10;14.95;;;13.57;;
63346;SDS011;49472;49.880;8.650;2022-09-14T16:03:35;13.48;;;12.63;;
63346;SDS011;49472;49.880;8.650;2022-09-14T16:06:01;13.40;;;12.60;;
63346;SDS011;49472;49.880;8.650;2022-09-14T16:08:26;12.43;;;11.73;;
63346;SDS011;49472;49.880;8.650;2022-09-14T16:10:58;14.00;;;12.82;;
63346;SDS011;49472;49.880;8.650;2022-09-14T16:13:23;14.10;;;13.10;;
63346;SDS011;49472;49.880;8.650;2022-09-14T16:15:49;14.10;;;12.73;;
63346;SDS011;49472;49.880;8.650;2022-09-14T16:18:14;13.63;;;12.30;;
63346;SDS011;49472;49.880;8.650;2022-09-14T16:20:39;13.60;;;11.90;;
63346;SDS011;49472;49.880;8.650;2022-09-14T16:23:04;13.20;;;12.30;;
63346;SDS011;49472;49.880;8.650;2022-09-14T16:25:29;13.48;;;12.48;;
63346;SDS011;49472;49.880;8.650;2022-09-14T16:27:55;13.10;;;12.10;;
63346;SDS011;49472;49.880;8.650;2022-09-14T16:30:20;13.40;;;12.40;;
63346;SDS011;49472;49.880;8.650;2022-09-14T16:32:45;14.00;;;12.63;;
63346;SDS011;49472;49.880;8.650;2022-09-14T16:35:11;12.97;;;12.07;;